Terminal Aerodrome Forecast
Issued by NWS Memphis, TN

Home | Current Version | Previous Version | Text Only | Print | Product List | Glossary On
Versions: 1 2 3 4 5 6 7 8 9 10 11 12 13 14 15 16 17 18 19
402
FTUS44 KMEG 231953 AAA
TAFMKL
TAF AMD
KMKL 231953Z 2320/2418 22015G25KT P6SM VCSH OVC015
     FM232100 25012G18KT P6SM VCSH BKN035
     FM232300 30009KT P6SM -SHRA VCTS BKN035CB
     FM240200 30006KT P6SM VCSH BKN040
     FM240800 36003KT P6SM BKN050
      TEMPO 2408/2412 5SM BR
     FM241500 36007KT P6SM SCT050=

USA.gov is the U.S. government's official web portal to all federal, state and local government web resources and services.